sensor_id;sensor_type;location;lat;lon;timestamp;P1;durP1;ratioP1;P2;durP2;ratioP2
76103;SDS011;64831;44.870;37.336;2023-11-18T00:02:00;4.65;;;1.95;;
76103;SDS011;64831;44.870;37.336;2023-11-18T00:04:26;6.10;;;2.50;;
76103;SDS011;64831;44.870;37.336;2023-11-18T00:06:52;8.45;;;2.63;;
76103;SDS011;64831;44.870;37.336;2023-11-18T00:09:19;6.55;;;2.88;;
76103;SDS011;64831;44.870;37.336;2023-11-18T00:11:45;4.43;;;2.67;;
76103;SDS011;64831;44.870;37.336;2023-11-18T00:14:11;9.38;;;2.58;;
76103;SDS011;64831;44.870;37.336;2023-11-18T00:16:38;6.78;;;3.35;;
76103;SDS011;64831;44.870;37.336;2023-11-18T00:19:04;3.58;;;2.28;;
76103;SDS011;64831;44.870;37.336;2023-11-18T00:21:31;6.65;;;3.05;;
76103;SDS011;64831;44.870;37.336;2023-11-18T00:23:57;7.32;;;2.67;;
76103;SDS011;64831;44.870;37.336;2023-11-18T00:26:23;4.45;;;2.38;;
76103;SDS011;64831;44.870;37.336;2023-11-18T00:28:56;6.72;;;2.28;;
76103;SDS011;64831;44.870;37.336;2023-11-18T00:31:22;4.43;;;2.30;;
76103;SDS011;64831;44.870;37.336;2023-11-18T00:33:48;7.80;;;3.00;;
76103;SDS011;64831;44.870;37.336;2023-11-18T00:36:14;6.65;;;2.45;;
76103;SDS011;64831;44.870;37.336;2023-11-18T00:38:40;6.22;;;2.30;;
76103;SDS011;64831;44.870;37.336;2023-11-18T00:41:06;4.80;;;3.53;;
76103;SDS011;64831;44.870;37.336;2023-11-18T00:43:32;7.30;;;2.30;;
76103;SDS011;64831;44.870;37.336;2023-11-18T00:45:58;8.65;;;2.30;;
76103;SDS011;64831;44.870;37.336;2023-11-18T00:48:24;9.13;;;4.07;;
76103;SDS011;64831;44.870;37.336;2023-11-18T00:50:50;12.15;;;2.85;;
76103;SDS011;64831;44.870;37.336;2023-11-18T00:53:17;6.72;;;2.80;;
76103;SDS011;64831;44.870;37.336;2023-11-18T00:55:44;5.72;;;2.13;;
76103;SDS011;64831;44.870;37.336;2023-11-18T00:58:10;6.75;;;3.30;;
76103;SDS011;64831;44.870;37.336;2023-11-18T01:00:36;7.28;;;2.97;;
76103;SDS011;64831;44.870;37.336;2023-11-18T01:03:02;5.97;;;2.58;;
76103;SDS011;64831;44.870;37.336;2023-11-18T01:05:28;6.47;;;2.28;;
76103;SDS011;64831;44.870;37.336;2023-11-18T01:07:57;8.65;;;3.08;;
76103;SDS011;64831;44.870;37.336;2023-11-18T01:10:23;8.77;;;4.43;;
76103;SDS011;64831;44.870;37.336;2023-11-18T01:12:49;7.70;;;3.60;;
76103;SDS011;64831;44.870;37.336;2023-11-18T01:15:15;9.23;;;4.38;;
76103;SDS011;64831;44.870;37.336;2023-11-18T01:17:41;7.57;;;4.00;;
76103;SDS011;64831;44.870;37.336;2023-11-18T01:20:07;10.93;;;4.43;;
76103;SDS011;64831;44.870;37.336;2023-11-18T01:22:39;9.57;;;4.90;;
76103;SDS011;64831;44.870;37.336;2023-11-18T01:25:07;12.35;;;5.10;;
76103;SDS011;64831;44.870;37.336;2023-11-18T01:27:34;9.68;;;4.97;;
76103;SDS011;64831;44.870;37.336;2023-11-18T01:30:00;11.75;;;4.70;;
76103;SDS011;64831;44.870;37.336;2023-11-18T01:32:29;13.15;;;5.72;;
76103;SDS011;64831;44.870;37.336;2023-11-18T01:34:56;8.13;;;4.45;;
76103;SDS011;64831;44.870;37.336;2023-11-18T01:37:22;9.07;;;4.65;;
76103;SDS011;64831;44.870;37.336;2023-11-18T01:39:49;11.25;;;4.80;;
76103;SDS011;64831;44.870;37.336;2023-11-18T01:42:15;10.52;;;4.25;;
76103;SDS011;64831;44.870;37.336;2023-11-18T01:44:41;6.50;;;3.13;;
76103;SDS011;64831;44.870;37.336;2023-11-18T01:47:07;7.38;;;3.85;;
76103;SDS011;64831;44.870;37.336;2023-11-18T01:52:07;8.55;;;4.18;;
76103;SDS011;64831;44.870;37.336;2023-11-18T01:57:04;10.65;;;3.58;;
76103;SDS011;64831;44.870;37.336;2023-11-18T01:59:34;12.48;;;4.60;;
76103;SDS011;64831;44.870;37.336;2023-11-18T02:02:00;9.27;;;4.93;;
76103;SDS011;64831;44.870;37.336;2023-11-18T02:04:27;6.82;;;3.33;;
76103;SDS011;64831;44.870;37.336;2023-11-18T02:06:53;5.85;;;3.00;;
76103;SDS011;64831;44.870;37.336;2023-11-18T02:09:21;5.35;;;2.75;;
76103;SDS011;64831;44.870;37.336;2023-11-18T02:14:49;5.88;;;3.55;;
76103;SDS011;64831;44.870;37.336;2023-11-18T02:17:17;6.97;;;3.45;;
76103;SDS011;64831;44.870;37.336;2023-11-18T02:19:45;6.93;;;3.03;;
76103;SDS011;64831;44.870;37.336;2023-11-18T02:22:12;6.18;;;3.05;;
76103;SDS011;64831;44.870;37.336;2023-11-18T02:24:38;5.97;;;3.25;;
76103;SDS011;64831;44.870;37.336;2023-11-18T02:27:06;4.80;;;2.70;;
76103;SDS011;64831;44.870;37.336;2023-11-18T02:29:33;7.40;;;3.10;;
76103;SDS011;64831;44.870;37.336;2023-11-18T02:32:47;5.90;;;2.83;;
76103;SDS011;64831;44.870;37.336;2023-11-18T02:35:10;7.15;;;2.25;;
76103;SDS011;64831;44.870;37.336;2023-11-18T02:37:44;5.93;;;2.67;;
76103;SDS011;64831;44.870;37.336;2023-11-18T02:40:15;7.65;;;3.22;;
76103;SDS011;64831;44.870;37.336;2023-11-18T02:42:45;8.07;;;3.55;;
76103;SDS011;64831;44.870;37.336;2023-11-18T02:45:14;5.85;;;2.70;;
76103;SDS011;64831;44.870;37.336;2023-11-18T02:47:44;4.75;;;2.63;;
76103;SDS011;64831;44.870;37.336;2023-11-18T02:50:10;6.70;;;3.65;;
76103;SDS011;64831;44.870;37.336;2023-11-18T02:52:38;5.55;;;2.75;;
76103;SDS011;64831;44.870;37.336;2023-11-18T02:55:07;5.18;;;2.80;;
76103;SDS011;64831;44.870;37.336;2023-11-18T02:57:37;5.90;;;2.85;;
76103;SDS011;64831;44.870;37.336;2023-11-18T03:00:04;5.63;;;2.28;;
76103;SDS011;64831;44.870;37.336;2023-11-18T03:02:36;4.38;;;2.60;;
76103;SDS011;64831;44.870;37.336;2023-11-18T03:05:05;2.88;;;1.88;;
76103;SDS011;64831;44.870;37.336;2023-11-18T03:07:33;4.57;;;2.30;;
76103;SDS011;64831;44.870;37.336;2023-11-18T03:09:58;7.35;;;3.22;;
76103;SDS011;64831;44.870;37.336;2023-11-18T03:12:25;3.90;;;2.05;;
76103;SDS011;64831;44.870;37.336;2023-11-18T03:14:54;6.60;;;2.80;;
76103;SDS011;64831;44.870;37.336;2023-11-18T03:17:20;3.63;;;2.15;;
76103;SDS011;64831;44.870;37.336;2023-11-18T03:19:46;6.40;;;2.75;;
76103;SDS011;64831;44.870;37.336;2023-11-18T03:22:12;5.63;;;2.50;;
76103;SDS011;64831;44.870;37.336;2023-11-18T03:24:38;5.13;;;2.92;;
76103;SDS011;64831;44.870;37.336;2023-11-18T03:27:05;3.78;;;2.00;;
76103;SDS011;64831;44.870;37.336;2023-11-18T03:29:31;3.97;;;2.55;;
76103;SDS011;64831;44.870;37.336;2023-11-18T03:31:58;7.55;;;3.45;;
76103;SDS011;64831;44.870;37.336;2023-11-18T03:34:24;2.67;;;1.80;;
76103;SDS011;64831;44.870;37.336;2023-11-18T03:36:50;7.22;;;3.20;;
76103;SDS011;64831;44.870;37.336;2023-11-18T03:39:17;5.68;;;2.85;;
76103;SDS011;64831;44.870;37.336;2023-11-18T03:41:43;6.50;;;2.65;;
76103;SDS011;64831;44.870;37.336;2023-11-18T03:44:10;4.57;;;2.47;;
76103;SDS011;64831;44.870;37.336;2023-11-18T03:46:37;6.45;;;2.95;;
76103;SDS011;64831;44.870;37.336;2023-11-18T03:49:04;7.28;;;3.10;;
76103;SDS011;64831;44.870;37.336;2023-11-18T03:51:30;4.10;;;2.08;;
76103;SDS011;64831;44.870;37.336;2023-11-18T03:53:56;5.18;;;2.45;;
76103;SDS011;64831;44.870;37.336;2023-11-18T03:56:22;4.90;;;2.35;;
76103;SDS011;64831;44.870;37.336;2023-11-18T03:58:47;7.32;;;3.53;;
76103;SDS011;64831;44.870;37.336;2023-11-18T04:01:23;6.07;;;3.13;;
76103;SDS011;64831;44.870;37.336;2023-11-18T04:03:52;6.03;;;2.72;;
76103;SDS011;64831;44.870;37.336;2023-11-18T04:06:20;7.13;;;3.10;;
76103;SDS011;64831;44.870;37.336;2023-11-18T04:08:47;6.88;;;2.70;;
76103;SDS011;64831;44.870;37.336;2023-11-18T04:11:15;6.55;;;1.92;;
76103;SDS011;64831;44.870;37.336;2023-11-18T04:13:41;5.35;;;2.35;;
76103;SDS011;64831;44.870;37.336;2023-11-18T04:16:10;3.17;;;2.05;;
76103;SDS011;64831;44.870;37.336;2023-11-18T04:18:40;6.32;;;3.05;;
76103;SDS011;64831;44.870;37.336;2023-11-18T04:21:10;3.00;;;1.83;;
76103;SDS011;64831;44.870;37.336;2023-11-18T04:23:41;6.22;;;2.03;;
76103;SDS011;64831;44.870;37.336;2023-11-18T04:26:08;5.93;;;2.30;;
76103;SDS011;64831;44.870;37.336;2023-11-18T04:28:34;5.57;;;2.47;;
76103;SDS011;64831;44.870;37.336;2023-11-18T04:31:02;2.72;;;1.70;;
76103;SDS011;64831;44.870;37.336;2023-11-18T04:33:28;2.42;;;1.65;;
76103;SDS011;64831;44.870;37.336;2023-11-18T04:35:54;4.10;;;2.08;;
76103;SDS011;64831;44.870;37.336;2023-11-18T04:38:24;5.78;;;2.85;;
76103;SDS011;64831;44.870;37.336;2023-11-18T04:40:54;4.80;;;2.38;;
76103;SDS011;64831;44.870;37.336;2023-11-18T04:43:20;4.45;;;2.63;;
76103;SDS011;64831;44.870;37.336;2023-11-18T04:45:47;4.00;;;2.22;;
76103;SDS011;64831;44.870;37.336;2023-11-18T04:48:13;5.30;;;2.58;;
76103;SDS011;64831;44.870;37.336;2023-11-18T04:50:40;3.83;;;2.00;;
76103;SDS011;64831;44.870;37.336;2023-11-18T04:53:07;3.92;;;2.20;;
76103;SDS011;64831;44.870;37.336;2023-11-18T04:55:35;7.45;;;2.83;;
76103;SDS011;64831;44.870;37.336;2023-11-18T04:58:02;4.22;;;2.03;;
76103;SDS011;64831;44.870;37.336;2023-11-18T05:00:28;8.10;;;3.72;;
76103;SDS011;64831;44.870;37.336;2023-11-18T05:02:54;3.20;;;1.85;;
76103;SDS011;64831;44.870;37.336;2023-11-18T05:05:20;3.15;;;2.13;;
76103;SDS011;64831;44.870;37.336;2023-11-18T05:07:47;6.32;;;2.80;;
76103;SDS011;64831;44.870;37.336;2023-11-18T05:10:13;6.88;;;3.30;;
76103;SDS011;64831;44.870;37.336;2023-11-18T05:12:39;3.25;;;2.10;;
76103;SDS011;64831;44.870;37.336;2023-11-18T05:15:05;3.50;;;1.95;;
76103;SDS011;64831;44.870;37.336;2023-11-18T05:17:36;5.55;;;2.25;;
76103;SDS011;64831;44.870;37.336;2023-11-18T05:20:05;4.82;;;2.30;;
76103;SDS011;64831;44.870;37.336;2023-11-18T05:22:34;3.47;;;1.98;;
76103;SDS011;64831;44.870;37.336;2023-11-18T05:25:02;5.75;;;3.05;;
76103;SDS011;64831;44.870;37.336;2023-11-18T05:27:32;5.32;;;2.55;;
76103;SDS011;64831;44.870;37.336;2023-11-18T05:29:58;3.83;;;2.47;;
76103;SDS011;64831;44.870;37.336;2023-11-18T05:32:28;3.90;;;1.92;;
76103;SDS011;64831;44.870;37.336;2023-11-18T05:34:54;4.90;;;2.28;;
76103;SDS011;64831;44.870;37.336;2023-11-18T05:37:23;4.05;;;2.13;;
76103;SDS011;64831;44.870;37.336;2023-11-18T05:39:50;3.97;;;2.25;;
76103;SDS011;64831;44.870;37.336;2023-11-18T05:42:27;10.98;;;2.08;;
76103;SDS011;64831;44.870;37.336;2023-11-18T05:44:53;5.38;;;2.47;;
76103;SDS011;64831;44.870;37.336;2023-11-18T05:47:25;2.88;;;2.05;;
76103;SDS011;64831;44.870;37.336;2023-11-18T05:49:52;5.35;;;2.60;;
76103;SDS011;64831;44.870;37.336;2023-11-18T05:52:18;5.57;;;2.33;;
76103;SDS011;64831;44.870;37.336;2023-11-18T05:54:47;4.13;;;2.08;;
76103;SDS011;64831;44.870;37.336;2023-11-18T05:57:17;6.65;;;2.70;;
76103;SDS011;64831;44.870;37.336;2023-11-18T05:59:43;4.28;;;2.03;;
76103;SDS011;64831;44.870;37.336;2023-11-18T06:02:10;4.82;;;2.70;;
76103;SDS011;64831;44.870;37.336;2023-11-18T06:04:43;5.43;;;2.67;;
76103;SDS011;64831;44.870;37.336;2023-11-18T06:07:10;6.47;;;2.25;;
76103;SDS011;64831;44.870;37.336;2023-11-18T06:09:41;3.05;;;1.77;;
76103;SDS011;64831;44.870;37.336;2023-11-18T06:12:09;7.43;;;2.33;;
76103;SDS011;64831;44.870;37.336;2023-11-18T06:14:36;4.00;;;2.15;;
76103;SDS011;64831;44.870;37.336;2023-11-18T06:17:07;4.80;;;2.13;;
76103;SDS011;64831;44.870;37.336;2023-11-18T06:19:33;6.88;;;3.35;;
76103;SDS011;64831;44.870;37.336;2023-11-18T06:22:00;8.18;;;3.20;;
76103;SDS011;64831;44.870;37.336;2023-11-18T06:24:26;4.70;;;2.08;;
76103;SDS011;64831;44.870;37.336;2023-11-18T06:26:53;4.25;;;2.63;;
76103;SDS011;64831;44.870;37.336;2023-11-18T06:29:19;11.07;;;3.58;;
76103;SDS011;64831;44.870;37.336;2023-11-18T06:31:45;5.28;;;2.75;;
76103;SDS011;64831;44.870;37.336;2023-11-18T06:34:11;4.07;;;2.20;;
76103;SDS011;64831;44.870;37.336;2023-11-18T06:36:38;8.68;;;4.07;;
76103;SDS011;64831;44.870;37.336;2023-11-18T06:39:04;12.57;;;4.68;;
76103;SDS011;64831;44.870;37.336;2023-11-18T06:41:32;5.13;;;3.05;;
76103;SDS011;64831;44.870;37.336;2023-11-18T06:44:04;10.15;;;3.42;;
76103;SDS011;64831;44.870;37.336;2023-11-18T06:46:42;10.50;;;4.13;;
76103;SDS011;64831;44.870;37.336;2023-11-18T06:49:09;9.65;;;3.80;;
76103;SDS011;64831;44.870;37.336;2023-11-18T06:51:41;7.50;;;3.17;;
76103;SDS011;64831;44.870;37.336;2023-11-18T06:54:07;8.80;;;4.20;;
76103;SDS011;64831;44.870;37.336;2023-11-18T06:56:42;7.38;;;3.22;;
76103;SDS011;64831;44.870;37.336;2023-11-18T07:01:41;5.05;;;3.03;;
76103;SDS011;64831;44.870;37.336;2023-11-18T07:04:09;8.60;;;4.20;;
76103;SDS011;64831;44.870;37.336;2023-11-18T07:06:35;10.40;;;4.13;;
76103;SDS011;64831;44.870;37.336;2023-11-18T07:09:06;7.65;;;3.83;;
76103;SDS011;64831;44.870;37.336;2023-11-18T07:11:42;5.85;;;3.53;;
76103;SDS011;64831;44.870;37.336;2023-11-18T07:14:09;4.00;;;2.30;;
76103;SDS011;64831;44.870;37.336;2023-11-18T07:16:37;3.85;;;2.38;;
76103;SDS011;64831;44.870;37.336;2023-11-18T07:19:04;4.20;;;2.28;;
76103;SDS011;64831;44.870;37.336;2023-11-18T07:21:30;3.95;;;2.20;;
76103;SDS011;64831;44.870;37.336;2023-11-18T07:23:56;3.35;;;2.28;;
76103;SDS011;64831;44.870;37.336;2023-11-18T07:26:22;3.58;;;1.92;;
76103;SDS011;64831;44.870;37.336;2023-11-18T07:28:49;6.28;;;2.47;;
76103;SDS011;64831;44.870;37.336;2023-11-18T07:31:17;5.63;;;2.20;;
76103;SDS011;64831;44.870;37.336;2023-11-18T07:33:47;2.35;;;1.83;;
76103;SDS011;64831;44.870;37.336;2023-11-18T07:36:16;5.65;;;2.47;;
76103;SDS011;64831;44.870;37.336;2023-11-18T07:38:45;6.00;;;2.72;;
76103;SDS011;64831;44.870;37.336;2023-11-18T07:41:11;9.23;;;3.20;;
76103;SDS011;64831;44.870;37.336;2023-11-18T07:43:51;7.40;;;2.22;;
76103;SDS011;64831;44.870;37.336;2023-11-18T07:46:20;2.20;;;1.15;;
76103;SDS011;64831;44.870;37.336;2023-11-18T07:48:49;8.03;;;2.30;;
76103;SDS011;64831;44.870;37.336;2023-11-18T07:51:17;5.72;;;3.22;;
76103;SDS011;64831;44.870;37.336;2023-11-18T07:53:47;6.32;;;2.95;;
76103;SDS011;64831;44.870;37.336;2023-11-18T07:56:14;6.10;;;2.65;;
76103;SDS011;64831;44.870;37.336;2023-11-18T07:58:42;11.15;;;4.18;;
76103;SDS011;64831;44.870;37.336;2023-11-18T08:01:11;8.40;;;2.95;;
76103;SDS011;64831;44.870;37.336;2023-11-18T08:03:37;7.80;;;3.58;;
76103;SDS011;64831;44.870;37.336;2023-11-18T08:06:06;8.55;;;4.15;;
76103;SDS011;64831;44.870;37.336;2023-11-18T08:08:32;12.65;;;4.45;;
76103;SDS011;64831;44.870;37.336;2023-11-18T08:10:59;8.10;;;3.97;;
76103;SDS011;64831;44.870;37.336;2023-11-18T08:13:25;8.30;;;3.58;;
76103;SDS011;64831;44.870;37.336;2023-11-18T08:15:51;12.63;;;4.43;;
76103;SDS011;64831;44.870;37.336;2023-11-18T08:18:17;6.65;;;3.47;;
76103;SDS011;64831;44.870;37.336;2023-11-18T08:20:47;7.72;;;3.90;;
76103;SDS011;64831;44.870;37.336;2023-11-18T08:23:13;8.05;;;3.20;;
76103;SDS011;64831;44.870;37.336;2023-11-18T08:25:39;7.70;;;3.72;;
76103;SDS011;64831;44.870;37.336;2023-11-18T08:28:06;10.30;;;3.53;;
76103;SDS011;64831;44.870;37.336;2023-11-18T08:30:33;9.23;;;3.25;;
76103;SDS011;64831;44.870;37.336;2023-11-18T08:33:03;9.27;;;4.20;;
76103;SDS011;64831;44.870;37.336;2023-11-18T08:35:37;8.60;;;4.15;;
76103;SDS011;64831;44.870;37.336;2023-11-18T08:38:04;9.90;;;4.82;;
76103;SDS011;64831;44.870;37.336;2023-11-18T08:40:32;8.37;;;4.10;;
76103;SDS011;64831;44.870;37.336;2023-11-18T08:42:59;7.32;;;3.28;;
76103;SDS011;64831;44.870;37.336;2023-11-18T08:45:27;9.77;;;4.53;;
76103;SDS011;64831;44.870;37.336;2023-11-18T08:47:58;5.50;;;2.47;;
76103;SDS011;64831;44.870;37.336;2023-11-18T08:50:33;5.75;;;3.00;;
76103;SDS011;64831;44.870;37.336;2023-11-18T08:53:01;4.97;;;2.85;;
76103;SDS011;64831;44.870;37.336;2023-11-18T08:55:30;3.80;;;2.40;;
76103;SDS011;64831;44.870;37.336;2023-11-18T09:00:56;4.57;;;2.38;;
76103;SDS011;64831;44.870;37.336;2023-11-18T09:03:38;3.28;;;1.95;;
76103;SDS011;64831;44.870;37.336;2023-11-18T09:06:08;9.65;;;2.90;;
76103;SDS011;64831;44.870;37.336;2023-11-18T09:08:50;3.85;;;2.35;;
76103;SDS011;64831;44.870;37.336;2023-11-18T09:11:20;5.40;;;2.97;;
76103;SDS011;64831;44.870;37.336;2023-11-18T09:13:57;5.13;;;2.90;;
76103;SDS011;64831;44.870;37.336;2023-11-18T09:16:26;4.68;;;2.42;;
76103;SDS011;64831;44.870;37.336;2023-11-18T09:18:55;6.97;;;2.80;;
76103;SDS011;64831;44.870;37.336;2023-11-18T09:21:24;6.22;;;2.70;;
76103;SDS011;64831;44.870;37.336;2023-11-18T09:26:22;6.20;;;2.53;;
76103;SDS011;64831;44.870;37.336;2023-11-18T09:28:48;8.27;;;3.05;;
76103;SDS011;64831;44.870;37.336;2023-11-18T09:31:15;8.93;;;2.78;;
76103;SDS011;64831;44.870;37.336;2023-11-18T09:33:42;7.95;;;2.78;;
76103;SDS011;64831;44.870;37.336;2023-11-18T09:36:17;5.85;;;2.80;;
76103;SDS011;64831;44.870;37.336;2023-11-18T09:38:44;7.18;;;3.50;;
76103;SDS011;64831;44.870;37.336;2023-11-18T09:41:14;8.15;;;2.90;;
76103;SDS011;64831;44.870;37.336;2023-11-18T09:43:42;6.35;;;3.25;;
76103;SDS011;64831;44.870;37.336;2023-11-18T09:46:13;3.15;;;1.70;;
76103;SDS011;64831;44.870;37.336;2023-11-18T09:51:19;8.50;;;2.60;;
76103;SDS011;64831;44.870;37.336;2023-11-18T09:53:51;6.68;;;2.60;;
76103;SDS011;64831;44.870;37.336;2023-11-18T09:56:22;6.28;;;2.55;;
76103;SDS011;64831;44.870;37.336;2023-11-18T09:59:29;5.90;;;2.72;;
76103;SDS011;64831;44.870;37.336;2023-11-18T10:02:02;5.47;;;2.30;;
76103;SDS011;64831;44.870;37.336;2023-11-18T10:04:36;6.40;;;2.40;;
76103;SDS011;64831;44.870;37.336;2023-11-18T10:07:05;6.57;;;2.37;;
76103;SDS011;64831;44.870;37.336;2023-11-18T10:09:36;3.47;;;1.58;;
76103;SDS011;64831;44.870;37.336;2023-11-18T10:12:04;4.72;;;2.08;;
76103;SDS011;64831;44.870;37.336;2023-11-18T10:14:33;5.43;;;2.22;;
76103;SDS011;64831;44.870;37.336;2023-11-18T10:17:05;5.13;;;2.53;;
76103;SDS011;64831;44.870;37.336;2023-11-18T10:19:51;4.13;;;2.35;;
76103;SDS011;64831;44.870;37.336;2023-11-18T10:24:51;3.30;;;1.75;;
76103;SDS011;64831;44.870;37.336;2023-11-18T10:27:21;5.95;;;2.30;;
76103;SDS011;64831;44.870;37.336;2023-11-18T10:29:49;5.25;;;2.20;;
76103;SDS011;64831;44.870;37.336;2023-11-18T10:32:17;3.85;;;2.33;;
76103;SDS011;64831;44.870;37.336;2023-11-18T10:34:47;3.38;;;2.30;;
76103;SDS011;64831;44.870;37.336;2023-11-18T10:37:16;5.30;;;1.80;;
76103;SDS011;64831;44.870;37.336;2023-11-18T10:39:46;5.45;;;2.30;;
76103;SDS011;64831;44.870;37.336;2023-11-18T10:42:17;4.43;;;2.00;;
76103;SDS011;64831;44.870;37.336;2023-11-18T10:45:05;5.85;;;2.28;;
76103;SDS011;64831;44.870;37.336;2023-11-18T10:47:32;4.97;;;2.35;;
76103;SDS011;64831;44.870;37.336;2023-11-18T10:50:00;6.68;;;2.10;;
76103;SDS011;64831;44.870;37.336;2023-11-18T10:52:27;4.32;;;2.50;;
76103;SDS011;64831;44.870;37.336;2023-11-18T10:54:56;4.22;;;2.00;;
76103;SDS011;64831;44.870;37.336;2023-11-18T10:57:22;6.25;;;2.72;;
76103;SDS011;64831;44.870;37.336;2023-11-18T10:59:59;7.57;;;2.67;;
76103;SDS011;64831;44.870;37.336;2023-11-18T11:02:28;3.45;;;1.98;;
76103;SDS011;64831;44.870;37.336;2023-11-18T11:05:00;3.50;;;2.28;;
76103;SDS011;64831;44.870;37.336;2023-11-18T11:07:27;2.72;;;1.83;;
76103;SDS011;64831;44.870;37.336;2023-11-18T11:09:55;3.03;;;1.85;;
76103;SDS011;64831;44.870;37.336;2023-11-18T11:12:21;4.53;;;2.20;;
76103;SDS011;64831;44.870;37.336;2023-11-18T11:14:54;4.18;;;1.73;;
76103;SDS011;64831;44.870;37.336;2023-11-18T11:17:25;4.18;;;2.30;;
76103;SDS011;64831;44.870;37.336;2023-11-18T11:23:09;5.93;;;2.55;;
76103;SDS011;64831;44.870;37.336;2023-11-18T11:28:52;3.85;;;2.22;;
76103;SDS011;64831;44.870;37.336;2023-11-18T11:31:32;5.68;;;1.90;;
76103;SDS011;64831;44.870;37.336;2023-11-18T11:34:05;2.88;;;1.88;;
76103;SDS011;64831;44.870;37.336;2023-11-18T11:36:43;3.20;;;1.88;;
76103;SDS011;64831;44.870;37.336;2023-11-18T11:39:13;2.50;;;1.58;;
76103;SDS011;64831;44.870;37.336;2023-11-18T11:41:45;5.75;;;2.10;;
76103;SDS011;64831;44.870;37.336;2023-11-18T11:44:13;3.75;;;2.15;;
76103;SDS011;64831;44.870;37.336;2023-11-18T11:46:39;6.55;;;2.15;;
76103;SDS011;64831;44.870;37.336;2023-11-18T11:49:08;4.10;;;2.28;;
76103;SDS011;64831;44.870;37.336;2023-11-18T11:57:38;4.85;;;1.83;;
76103;SDS011;64831;44.870;37.336;2023-11-18T12:00:11;2.75;;;2.20;;
76103;SDS011;64831;44.870;37.336;2023-11-18T12:02:49;2.47;;;1.63;;
76103;SDS011;64831;44.870;37.336;2023-11-18T12:05:20;3.17;;;1.75;;
76103;SDS011;64831;44.870;37.336;2023-11-18T12:07:54;2.80;;;1.80;;
76103;SDS011;64831;44.870;37.336;2023-11-18T12:12:47;2.67;;;1.65;;
76103;SDS011;64831;44.870;37.336;2023-11-18T12:15:14;4.50;;;2.10;;
76103;SDS011;64831;44.870;37.336;2023-11-18T12:23:07;4.13;;;2.13;;
76103;SDS011;64831;44.870;37.336;2023-11-18T12:25:40;1.85;;;1.50;;
76103;SDS011;64831;44.870;37.336;2023-11-18T12:28:07;3.90;;;1.70;;
76103;SDS011;64831;44.870;37.336;2023-11-18T12:33:03;1.58;;;1.23;;
76103;SDS011;64831;44.870;37.336;2023-11-18T12:38:30;5.40;;;2.42;;
76103;SDS011;64831;44.870;37.336;2023-11-18T12:47:01;5.53;;;2.55;;
76103;SDS011;64831;44.870;37.336;2023-11-18T12:49:40;4.47;;;2.40;;
76103;SDS011;64831;44.870;37.336;2023-11-18T12:52:08;3.40;;;1.98;;
76103;SDS011;64831;44.870;37.336;2023-11-18T12:54:35;3.83;;;2.40;;
76103;SDS011;64831;44.870;37.336;2023-11-18T12:57:09;4.32;;;2.28;;
76103;SDS011;64831;44.870;37.336;2023-11-18T12:59:39;3.42;;;2.20;;
76103;SDS011;64831;44.870;37.336;2023-11-18T13:02:07;5.88;;;2.60;;
76103;SDS011;64831;44.870;37.336;2023-11-18T13:04:33;5.00;;;2.58;;
76103;SDS011;64831;44.870;37.336;2023-11-18T13:06:59;10.07;;;2.50;;
76103;SDS011;64831;44.870;37.336;2023-11-18T13:09:28;5.35;;;2.90;;
76103;SDS011;64831;44.870;37.336;2023-11-18T13:11:58;5.57;;;2.90;;
76103;SDS011;64831;44.870;37.336;2023-11-18T13:14:28;4.18;;;1.95;;
76103;SDS011;64831;44.870;37.336;2023-11-18T13:17:01;4.75;;;2.35;;
76103;SDS011;64831;44.870;37.336;2023-11-18T13:19:31;7.40;;;2.58;;
76103;SDS011;64831;44.870;37.336;2023-11-18T13:22:03;4.43;;;2.03;;
76103;SDS011;64831;44.870;37.336;2023-11-18T13:24:37;4.80;;;2.42;;
76103;SDS011;64831;44.870;37.336;2023-11-18T13:27:10;3.35;;;1.98;;
76103;SDS011;64831;44.870;37.336;2023-11-18T13:29:39;7.40;;;2.22;;
76103;SDS011;64831;44.870;37.336;2023-11-18T13:32:11;2.95;;;1.95;;
76103;SDS011;64831;44.870;37.336;2023-11-18T13:34:38;4.88;;;2.40;;
76103;SDS011;64831;44.870;37.336;2023-11-18T13:37:07;5.78;;;3.03;;
76103;SDS011;64831;44.870;37.336;2023-11-18T13:39:36;4.90;;;2.13;;
76103;SDS011;64831;44.870;37.336;2023-11-18T13:42:19;3.08;;;2.00;;
76103;SDS011;64831;44.870;37.336;2023-11-18T13:47:13;9.85;;;3.03;;
76103;SDS011;64831;44.870;37.336;2023-11-18T13:49:42;3.65;;;2.22;;
76103;SDS011;64831;44.870;37.336;2023-11-18T13:52:10;5.20;;;2.70;;
76103;SDS011;64831;44.870;37.336;2023-11-18T13:54:38;7.20;;;3.40;;
76103;SDS011;64831;44.870;37.336;2023-11-18T13:57:05;5.40;;;2.90;;
76103;SDS011;64831;44.870;37.336;2023-11-18T13:59:32;4.28;;;2.50;;
76103;SDS011;64831;44.870;37.336;2023-11-18T14:01:59;5.20;;;2.60;;
76103;SDS011;64831;44.870;37.336;2023-11-18T14:04:30;6.43;;;3.17;;
76103;SDS011;64831;44.870;37.336;2023-11-18T14:09:30;4.80;;;2.45;;
76103;SDS011;64831;44.870;37.336;2023-11-18T14:12:01;4.32;;;2.17;;
76103;SDS011;64831;44.870;37.336;2023-11-18T14:14:28;7.30;;;3.00;;
76103;SDS011;64831;44.870;37.336;2023-11-18T14:16:55;6.72;;;2.70;;
76103;SDS011;64831;44.870;37.336;2023-11-18T14:19:24;7.43;;;2.53;;
76103;SDS011;64831;44.870;37.336;2023-11-18T14:21:53;8.85;;;2.97;;
76103;SDS011;64831;44.870;37.336;2023-11-18T14:24:19;8.15;;;3.85;;
76103;SDS011;64831;44.870;37.336;2023-11-18T14:26:48;4.22;;;2.72;;
76103;SDS011;64831;44.870;37.336;2023-11-18T14:29:15;7.07;;;3.22;;
76103;SDS011;64831;44.870;37.336;2023-11-18T14:31:42;12.32;;;3.40;;
76103;SDS011;64831;44.870;37.336;2023-11-18T14:34:08;6.75;;;3.42;;
76103;SDS011;64831;44.870;37.336;2023-11-18T14:36:38;7.47;;;3.63;;
76103;SDS011;64831;44.870;37.336;2023-11-18T14:39:06;6.38;;;3.08;;
76103;SDS011;64831;44.870;37.336;2023-11-18T14:41:38;8.27;;;3.20;;
76103;SDS011;64831;44.870;37.336;2023-11-18T14:44:04;5.50;;;3.10;;
76103;SDS011;64831;44.870;37.336;2023-11-18T14:46:31;9.10;;;3.25;;
76103;SDS011;64831;44.870;37.336;2023-11-18T14:48:57;8.68;;;3.90;;
76103;SDS011;64831;44.870;37.336;2023-11-18T14:51:23;4.35;;;2.17;;
76103;SDS011;64831;44.870;37.336;2023-11-18T14:53:50;8.05;;;3.33;;
76103;SDS011;64831;44.870;37.336;2023-11-18T14:56:17;7.53;;;3.10;;
76103;SDS011;64831;44.870;37.336;2023-11-18T14:58:43;9.05;;;4.30;;
76103;SDS011;64831;44.870;37.336;2023-11-18T15:01:14;8.18;;;3.60;;
76103;SDS011;64831;44.870;37.336;2023-11-18T15:03:41;7.90;;;4.20;;
76103;SDS011;64831;44.870;37.336;2023-11-18T15:06:07;8.10;;;4.18;;
76103;SDS011;64831;44.870;37.336;2023-11-18T15:11:05;7.47;;;4.07;;
76103;SDS011;64831;44.870;37.336;2023-11-18T15:13:34;7.90;;;4.63;;
76103;SDS011;64831;44.870;37.336;2023-11-18T15:16:01;8.27;;;4.10;;
76103;SDS011;64831;44.870;37.336;2023-11-18T15:18:29;8.23;;;5.15;;
76103;SDS011;64831;44.870;37.336;2023-11-18T15:20:55;7.35;;;4.80;;
76103;SDS011;64831;44.870;37.336;2023-11-18T15:23:22;12.27;;;5.55;;
76103;SDS011;64831;44.870;37.336;2023-11-18T15:25:48;13.27;;;5.35;;
76103;SDS011;64831;44.870;37.336;2023-11-18T15:28:17;9.83;;;4.57;;
76103;SDS011;64831;44.870;37.336;2023-11-18T15:30:44;8.60;;;5.72;;
76103;SDS011;64831;44.870;37.336;2023-11-18T15:33:10;8.88;;;5.03;;
76103;SDS011;64831;44.870;37.336;2023-11-18T15:35:39;8.23;;;4.60;;
76103;SDS011;64831;44.870;37.336;2023-11-18T15:38:08;10.27;;;5.32;;
76103;SDS011;64831;44.870;37.336;2023-11-18T15:40:38;7.82;;;5.03;;
76103;SDS011;64831;44.870;37.336;2023-11-18T15:43:04;13.33;;;5.60;;